Wrangell Airport
PAWG : now visible

Airfield :











YOU CAN JOIN US ON...

 
LOGIN :

Register | Disclaimer

   EN    FR    IT 

 









Legend :    VFR   Marginal VFR   IFR   Intensive IFR   Very Intensive IFR
Visi :
Ceiling :
>= 8 km
>= 3000ft
5 to 8 km
1000 to 3000 ft
1500m to 5 km
500 to 1000 ft
800 to 1500m
200 to 500 ft
< 800m
< 200 ft
Symbols :   Thunderstorms  Fog  Heavy snow  Heavy precipitations  Wind > 20 kt






- Airport Elevation : 49 ft
- IATA code : WRG


PAWG - Wrangell

CURRENT METAR :
  • 231756Z 00000KT 7SM -RA SCT013 BKN030 OVC045 11/08 A2986

EXPIRED METARs :
  • 231656Z 00000KT 7SM -RA SCT028 BKN033 OVC042 11/09 A2986
  • 231556Z 06006KT 6SM -RA BR SCT028 BKN033 OVC042 10/08 A2986
  • 231456Z 06006KT 6SM -RA BR BKN028 OVC042 10/08 A2986
  • 231356Z 18006KT 6SM -RA BR BKN028 OVC042 10/08 A2986

TAF PAWG
Valid from the 23 at 18:00 until the 24 at 18:00 UTC


231721Z 2318/2418 08005KT 6SM -SHRA SCT025 BKN030 OVC040
FM232000 10005KT 4SM -RA BR SCT007 OVC020
TEMPO 2320/2324 2SM RA BKN007
FM240200 VRB03KT 6SM BR VCSH SCT007 OVC012
FM241200 VRB02KT 4SM BR BKN006 OVC025 AMD NOT SKED 2406/2415
PAZA FIR / North America



MET'MAP, your aeronautical weather chart ! - Copyright ORBIFLY December 2007 - Disclaimer

ORBIFLY MET'MAP TEAM :

Programming & Development : Alexandra Zaïnal
Original concept : Baudouin d'Aumeries
Technical & hardware support : Manuel Goepfert
Assistance : Marc-Olivier Méhu




SOURCES & CREDITS :

   NOAA       Earth
Advisory